sensor_id;sensor_type;location;lat;lon;timestamp;P1;durP1;ratioP1;P2;durP2;ratioP2
46721;SDS011;32455;43.430;23.136;2022-11-21T00:02:24;1.20;;;1.10;;
46721;SDS011;32455;43.430;23.136;2022-11-21T00:05:10;4.68;;;1.20;;
46721;SDS011;32455;43.430;23.136;2022-11-21T00:07:55;1.48;;;1.20;;
46721;SDS011;32455;43.430;23.136;2022-11-21T00:10:41;1.38;;;1.27;;
46721;SDS011;32455;43.430;23.136;2022-11-21T00:13:27;1.52;;;1.42;;
46721;SDS011;32455;43.430;23.136;2022-11-21T00:16:13;3.38;;;1.40;;
46721;SDS011;32455;43.430;23.136;2022-11-21T00:18:59;1.40;;;1.30;;
46721;SDS011;32455;43.430;23.136;2022-11-21T00:21:44;1.60;;;1.35;;
46721;SDS011;32455;43.430;23.136;2022-11-21T00:24:30;1.60;;;1.50;;
46721;SDS011;32455;43.430;23.136;2022-11-21T00:27:16;2.08;;;1.80;;
46721;SDS011;32455;43.430;23.136;2022-11-21T00:30:02;1.90;;;1.75;;
46721;SDS011;32455;43.430;23.136;2022-11-21T00:32:48;2.25;;;2.05;;
46721;SDS011;32455;43.430;23.136;2022-11-21T00:35:33;3.97;;;2.20;;
46721;SDS011;32455;43.430;23.136;2022-11-21T00:38:18;2.08;;;1.85;;
46721;SDS011;32455;43.430;23.136;2022-11-21T00:41:04;3.33;;;3.03;;
46721;SDS011;32455;43.430;23.136;2022-11-21T00:43:49;2.80;;;2.53;;
46721;SDS011;32455;43.430;23.136;2022-11-21T00:46:34;2.53;;;2.33;;
46721;SDS011;32455;43.430;23.136;2022-11-21T00:49:19;2.00;;;1.80;;
46721;SDS011;32455;43.430;23.136;2022-11-21T00:52:04;1.98;;;1.80;;
46721;SDS011;32455;43.430;23.136;2022-11-21T00:54:50;2.45;;;2.00;;
46721;SDS011;32455;43.430;23.136;2022-11-21T00:57:35;1.67;;;1.58;;
46721;SDS011;32455;43.430;23.136;2022-11-21T01:00:21;1.80;;;1.70;;
46721;SDS011;32455;43.430;23.136;2022-11-21T01:03:06;2.55;;;1.90;;
46721;SDS011;32455;43.430;23.136;2022-11-21T01:05:51;2.35;;;2.15;;
46721;SDS011;32455;43.430;23.136;2022-11-21T01:08:37;2.00;;;1.80;;
46721;SDS011;32455;43.430;23.136;2022-11-21T01:11:24;4.47;;;1.90;;
46721;SDS011;32455;43.430;23.136;2022-11-21T01:14:10;1.70;;;1.50;;
46721;SDS011;32455;43.430;23.136;2022-11-21T01:16:56;1.38;;;1.27;;
46721;SDS011;32455;43.430;23.136;2022-11-21T01:19:41;3.90;;;1.05;;
46721;SDS011;32455;43.430;23.136;2022-11-21T01:22:26;0.52;;;0.52;;
46721;SDS011;32455;43.430;23.136;2022-11-21T01:25:12;0.40;;;0.40;;
46721;SDS011;32455;43.430;23.136;2022-11-21T01:27:57;0.32;;;0.32;;
46721;SDS011;32455;43.430;23.136;2022-11-21T01:30:43;0.40;;;0.40;;
46721;SDS011;32455;43.430;23.136;2022-11-21T01:33:28;0.60;;;0.35;;
46721;SDS011;32455;43.430;23.136;2022-11-21T01:36:15;0.40;;;0.35;;
46721;SDS011;32455;43.430;23.136;2022-11-21T01:39:07;0.20;;;0.20;;
46721;SDS011;32455;43.430;23.136;2022-11-21T01:41:54;0.20;;;0.20;;
46721;SDS011;32455;43.430;23.136;2022-11-21T01:44:47;2.20;;;0.30;;
46721;SDS011;32455;43.430;23.136;2022-11-21T01:47:37;0.20;;;0.20;;
46721;SDS011;32455;43.430;23.136;2022-11-21T01:50:22;0.20;;;0.20;;
46721;SDS011;32455;43.430;23.136;2022-11-21T01:53:08;0.20;;;0.20;;
46721;SDS011;32455;43.430;23.136;2022-11-21T01:55:53;0.40;;;0.40;;
46721;SDS011;32455;43.430;23.136;2022-11-21T01:58:39;1.27;;;0.28;;
46721;SDS011;32455;43.430;23.136;2022-11-21T02:01:27;0.63;;;0.30;;
46721;SDS011;32455;43.430;23.136;2022-11-21T02:04:13;0.35;;;0.35;;
46721;SDS011;32455;43.430;23.136;2022-11-21T02:07:00;0.70;;;0.55;;
46721;SDS011;32455;43.430;23.136;2022-11-21T02:09:49;0.20;;;0.20;;
46721;SDS011;32455;43.430;23.136;2022-11-21T02:12:56;0.60;;;0.47;;
46721;SDS011;32455;43.430;23.136;2022-11-21T02:15:43;0.30;;;0.30;;
46721;SDS011;32455;43.430;23.136;2022-11-21T02:18:28;0.70;;;0.50;;
46721;SDS011;32455;43.430;23.136;2022-11-21T02:24:16;0.30;;;0.30;;
46721;SDS011;32455;43.430;23.136;2022-11-21T02:27:37;0.30;;;0.30;;
46721;SDS011;32455;43.430;23.136;2022-11-21T02:30:23;0.20;;;0.20;;
46721;SDS011;32455;43.430;23.136;2022-11-21T02:33:11;0.28;;;0.28;;
46721;SDS011;32455;43.430;23.136;2022-11-21T02:35:58;0.20;;;0.20;;
46721;SDS011;32455;43.430;23.136;2022-11-21T02:38:44;0.20;;;0.20;;
46721;SDS011;32455;43.430;23.136;2022-11-21T02:41:29;0.45;;;0.30;;
46721;SDS011;32455;43.430;23.136;2022-11-21T02:44:21;0.65;;;0.30;;
46721;SDS011;32455;43.430;23.136;2022-11-21T02:47:13;0.10;;;0.10;;
46721;SDS011;32455;43.430;23.136;2022-11-21T02:50:12;0.10;;;0.10;;
46721;SDS011;32455;43.430;23.136;2022-11-21T02:53:00;0.20;;;0.20;;
46721;SDS011;32455;43.430;23.136;2022-11-21T02:55:46;0.30;;;0.30;;
46721;SDS011;32455;43.430;23.136;2022-11-21T02:58:32;1.40;;;0.20;;
46721;SDS011;32455;43.430;23.136;2022-11-21T03:01:17;0.17;;;0.17;;
46721;SDS011;32455;43.430;23.136;2022-11-21T03:04:02;0.20;;;0.20;;
46721;SDS011;32455;43.430;23.136;2022-11-21T03:06:48;0.43;;;0.30;;
46721;SDS011;32455;43.430;23.136;2022-11-21T03:09:34;1.25;;;0.20;;
46721;SDS011;32455;43.430;23.136;2022-11-21T03:12:19;0.13;;;0.13;;
46721;SDS011;32455;43.430;23.136;2022-11-21T03:15:05;0.85;;;0.30;;
46721;SDS011;32455;43.430;23.136;2022-11-21T03:17:51;0.85;;;0.30;;
46721;SDS011;32455;43.430;23.136;2022-11-21T03:20:36;0.55;;;0.32;;
46721;SDS011;32455;43.430;23.136;2022-11-21T03:23:21;8.32;;;4.68;;
46721;SDS011;32455;43.430;23.136;2022-11-21T03:26:07;3.63;;;2.53;;
46721;SDS011;32455;43.430;23.136;2022-11-21T03:28:53;0.47;;;0.47;;
46721;SDS011;32455;43.430;23.136;2022-11-21T03:31:38;0.38;;;0.35;;
46721;SDS011;32455;43.430;23.136;2022-11-21T03:34:23;0.17;;;0.17;;
46721;SDS011;32455;43.430;23.136;2022-11-21T03:37:09;0.13;;;0.13;;
46721;SDS011;32455;43.430;23.136;2022-11-21T03:39:54;0.10;;;0.10;;
46721;SDS011;32455;43.430;23.136;2022-11-21T03:42:40;0.10;;;0.10;;
46721;SDS011;32455;43.430;23.136;2022-11-21T03:45:26;1.65;;;0.52;;
46721;SDS011;32455;43.430;23.136;2022-11-21T03:48:11;0.20;;;0.20;;
46721;SDS011;32455;43.430;23.136;2022-11-21T03:50:57;0.10;;;0.10;;
46721;SDS011;32455;43.430;23.136;2022-11-21T03:53:42;0.10;;;0.10;;
46721;SDS011;32455;43.430;23.136;2022-11-21T03:56:28;0.47;;;0.15;;
46721;SDS011;32455;43.430;23.136;2022-11-21T03:59:14;0.10;;;0.10;;
46721;SDS011;32455;43.430;23.136;2022-11-21T04:01:59;0.10;;;0.10;;
46721;SDS011;32455;43.430;23.136;2022-11-21T04:04:45;0.30;;;0.30;;
46721;SDS011;32455;43.430;23.136;2022-11-21T04:07:30;0.30;;;0.30;;
46721;SDS011;32455;43.430;23.136;2022-11-21T04:10:16;0.30;;;0.30;;
46721;SDS011;32455;43.430;23.136;2022-11-21T04:13:01;0.28;;;0.28;;
46721;SDS011;32455;43.430;23.136;2022-11-21T04:15:46;0.10;;;0.10;;
46721;SDS011;32455;43.430;23.136;2022-11-21T04:18:32;0.10;;;0.10;;
46721;SDS011;32455;43.430;23.136;2022-11-21T04:21:19;0.30;;;0.20;;
46721;SDS011;32455;43.430;23.136;2022-11-21T04:24:04;2.30;;;0.70;;
46721;SDS011;32455;43.430;23.136;2022-11-21T04:26:50;0.30;;;0.30;;
46721;SDS011;32455;43.430;23.136;2022-11-21T04:29:37;0.30;;;0.30;;
46721;SDS011;32455;43.430;23.136;2022-11-21T04:32:22;1.83;;;1.73;;
46721;SDS011;32455;43.430;23.136;2022-11-21T04:35:07;1.98;;;0.70;;
46721;SDS011;32455;43.430;23.136;2022-11-21T04:37:53;0.40;;;0.40;;
46721;SDS011;32455;43.430;23.136;2022-11-21T04:40:39;0.73;;;0.40;;
46721;SDS011;32455;43.430;23.136;2022-11-21T04:43:24;0.45;;;0.43;;
46721;SDS011;32455;43.430;23.136;2022-11-21T04:46:09;0.40;;;0.40;;
46721;SDS011;32455;43.430;23.136;2022-11-21T04:48:54;0.60;;;0.60;;
46721;SDS011;32455;43.430;23.136;2022-11-21T04:51:40;0.55;;;0.55;;
46721;SDS011;32455;43.430;23.136;2022-11-21T04:54:25;0.60;;;0.60;;
46721;SDS011;32455;43.430;23.136;2022-11-21T04:57:10;0.70;;;0.70;;
46721;SDS011;32455;43.430;23.136;2022-11-21T04:59:54;0.60;;;0.60;;
46721;SDS011;32455;43.430;23.136;2022-11-21T05:02:40;2.95;;;0.73;;
46721;SDS011;32455;43.430;23.136;2022-11-21T05:05:26;0.60;;;0.60;;
46721;SDS011;32455;43.430;23.136;2022-11-21T05:08:11;0.45;;;0.40;;
46721;SDS011;32455;43.430;23.136;2022-11-21T05:10:57;0.40;;;0.40;;
46721;SDS011;32455;43.430;23.136;2022-11-21T05:14:00;1.85;;;0.30;;
46721;SDS011;32455;43.430;23.136;2022-11-21T05:16:45;0.40;;;0.40;;
46721;SDS011;32455;43.430;23.136;2022-11-21T05:19:31;0.30;;;0.30;;
46721;SDS011;32455;43.430;23.136;2022-11-21T05:22:17;0.30;;;0.30;;
46721;SDS011;32455;43.430;23.136;2022-11-21T05:25:02;0.50;;;0.40;;
46721;SDS011;32455;43.430;23.136;2022-11-21T05:27:48;0.75;;;0.70;;
46721;SDS011;32455;43.430;23.136;2022-11-21T05:30:33;1.05;;;0.88;;
46721;SDS011;32455;43.430;23.136;2022-11-21T05:33:19;2.25;;;0.70;;
46721;SDS011;32455;43.430;23.136;2022-11-21T05:36:04;0.50;;;0.50;;
46721;SDS011;32455;43.430;23.136;2022-11-21T05:38:49;0.75;;;0.60;;
46721;SDS011;32455;43.430;23.136;2022-11-21T05:41:35;0.50;;;0.50;;
46721;SDS011;32455;43.430;23.136;2022-11-21T05:44:20;1.23;;;0.90;;
46721;SDS011;32455;43.430;23.136;2022-11-21T05:47:05;0.60;;;0.60;;
46721;SDS011;32455;43.430;23.136;2022-11-21T05:49:51;0.40;;;0.40;;
46721;SDS011;32455;43.430;23.136;2022-11-21T05:52:36;1.98;;;0.80;;
46721;SDS011;32455;43.430;23.136;2022-11-21T05:55:21;0.60;;;0.55;;
46721;SDS011;32455;43.430;23.136;2022-11-21T05:58:06;0.70;;;0.65;;
46721;SDS011;32455;43.430;23.136;2022-11-21T06:00:55;0.70;;;0.70;;
46721;SDS011;32455;43.430;23.136;2022-11-21T06:03:42;1.05;;;0.70;;
46721;SDS011;32455;43.430;23.136;2022-11-21T06:06:27;0.40;;;0.40;;
46721;SDS011;32455;43.430;23.136;2022-11-21T06:09:12;0.60;;;0.60;;
46721;SDS011;32455;43.430;23.136;2022-11-21T06:11:58;0.80;;;0.60;;
46721;SDS011;32455;43.430;23.136;2022-11-21T06:14:43;0.60;;;0.50;;
46721;SDS011;32455;43.430;23.136;2022-11-21T06:17:28;3.20;;;0.50;;
46721;SDS011;32455;43.430;23.136;2022-11-21T06:20:13;0.60;;;0.60;;
46721;SDS011;32455;43.430;23.136;2022-11-21T06:22:59;1.23;;;0.70;;
46721;SDS011;32455;43.430;23.136;2022-11-21T06:25:44;0.40;;;0.40;;
46721;SDS011;32455;43.430;23.136;2022-11-21T06:28:31;1.00;;;0.60;;
46721;SDS011;32455;43.430;23.136;2022-11-21T06:31:19;1.10;;;0.60;;
46721;SDS011;32455;43.430;23.136;2022-11-21T06:34:06;0.60;;;0.60;;
46721;SDS011;32455;43.430;23.136;2022-11-21T06:36:52;0.57;;;0.40;;
46721;SDS011;32455;43.430;23.136;2022-11-21T06:39:37;0.90;;;0.60;;
46721;SDS011;32455;43.430;23.136;2022-11-21T06:42:23;0.40;;;0.40;;
46721;SDS011;32455;43.430;23.136;2022-11-21T06:45:08;0.20;;;0.20;;
46721;SDS011;32455;43.430;23.136;2022-11-21T06:47:54;0.63;;;0.40;;
46721;SDS011;32455;43.430;23.136;2022-11-21T06:50:39;0.82;;;0.40;;
46721;SDS011;32455;43.430;23.136;2022-11-21T06:53:24;0.70;;;0.70;;
46721;SDS011;32455;43.430;23.136;2022-11-21T06:56:10;1.42;;;1.10;;
46721;SDS011;32455;43.430;23.136;2022-11-21T06:58:55;0.80;;;0.80;;
46721;SDS011;32455;43.430;23.136;2022-11-21T07:01:41;0.98;;;0.82;;
46721;SDS011;32455;43.430;23.136;2022-11-21T07:04:26;0.40;;;0.32;;
46721;SDS011;32455;43.430;23.136;2022-11-21T07:07:12;0.50;;;0.50;;
46721;SDS011;32455;43.430;23.136;2022-11-21T07:09:57;0.45;;;0.45;;
46721;SDS011;32455;43.430;23.136;2022-11-21T07:12:43;0.50;;;0.50;;
46721;SDS011;32455;43.430;23.136;2022-11-21T07:15:48;0.85;;;0.30;;
46721;SDS011;32455;43.430;23.136;2022-11-21T07:18:35;0.65;;;0.50;;
46721;SDS011;32455;43.430;23.136;2022-11-21T07:21:21;0.55;;;0.55;;
46721;SDS011;32455;43.430;23.136;2022-11-21T07:24:06;0.70;;;0.70;;
46721;SDS011;32455;43.430;23.136;2022-11-21T07:26:52;1.33;;;0.88;;
46721;SDS011;32455;43.430;23.136;2022-11-21T07:29:37;0.90;;;0.65;;
46721;SDS011;32455;43.430;23.136;2022-11-21T07:32:24;1.13;;;0.80;;
46721;SDS011;32455;43.430;23.136;2022-11-21T07:35:10;0.93;;;0.90;;
46721;SDS011;32455;43.430;23.136;2022-11-21T07:37:55;1.50;;;1.23;;
46721;SDS011;32455;43.430;23.136;2022-11-21T07:40:40;0.43;;;0.40;;
46721;SDS011;32455;43.430;23.136;2022-11-21T07:43:26;0.60;;;0.50;;
46721;SDS011;32455;43.430;23.136;2022-11-21T07:46:11;0.90;;;0.60;;
46721;SDS011;32455;43.430;23.136;2022-11-21T07:48:56;0.70;;;0.50;;
46721;SDS011;32455;43.430;23.136;2022-11-21T07:51:42;0.60;;;0.60;;
46721;SDS011;32455;43.430;23.136;2022-11-21T07:54:27;1.80;;;1.08;;
46721;SDS011;32455;43.430;23.136;2022-11-21T07:57:12;1.23;;;0.95;;
46721;SDS011;32455;43.430;23.136;2022-11-21T07:59:58;0.68;;;0.65;;
46721;SDS011;32455;43.430;23.136;2022-11-21T08:02:43;1.10;;;0.77;;
46721;SDS011;32455;43.430;23.136;2022-11-21T08:05:29;1.60;;;1.50;;
46721;SDS011;32455;43.430;23.136;2022-11-21T08:08:14;2.03;;;1.20;;
46721;SDS011;32455;43.430;23.136;2022-11-21T08:11:02;10.38;;;5.72;;
46721;SDS011;32455;43.430;23.136;2022-11-21T08:13:49;7.45;;;4.25;;
46721;SDS011;32455;43.430;23.136;2022-11-21T08:16:34;2.15;;;1.33;;
46721;SDS011;32455;43.430;23.136;2022-11-21T08:19:19;1.88;;;1.70;;
46721;SDS011;32455;43.430;23.136;2022-11-21T08:22:04;1.10;;;1.00;;
46721;SDS011;32455;43.430;23.136;2022-11-21T08:24:49;1.77;;;1.27;;
46721;SDS011;32455;43.430;23.136;2022-11-21T08:27:37;2.40;;;2.05;;
46721;SDS011;32455;43.430;23.136;2022-11-21T08:30:23;3.15;;;1.30;;
46721;SDS011;32455;43.430;23.136;2022-11-21T08:33:08;1.40;;;1.30;;
46721;SDS011;32455;43.430;23.136;2022-11-21T08:35:54;1.98;;;0.70;;
46721;SDS011;32455;43.430;23.136;2022-11-21T08:38:39;2.33;;;0.80;;
46721;SDS011;32455;43.430;23.136;2022-11-21T08:41:25;1.95;;;0.90;;
46721;SDS011;32455;43.430;23.136;2022-11-21T08:44:33;2.22;;;1.05;;
46721;SDS011;32455;43.430;23.136;2022-11-21T08:47:19;2.00;;;1.30;;
46721;SDS011;32455;43.430;23.136;2022-11-21T08:50:05;0.98;;;0.85;;
46721;SDS011;32455;43.430;23.136;2022-11-21T08:52:51;0.88;;;0.45;;
46721;SDS011;32455;43.430;23.136;2022-11-21T08:55:36;0.63;;;0.63;;
46721;SDS011;32455;43.430;23.136;2022-11-21T08:58:22;1.55;;;0.55;;
46721;SDS011;32455;43.430;23.136;2022-11-21T09:01:07;0.50;;;0.50;;
46721;SDS011;32455;43.430;23.136;2022-11-21T09:03:52;1.58;;;0.70;;
46721;SDS011;32455;43.430;23.136;2022-11-21T09:06:38;0.60;;;0.60;;
46721;SDS011;32455;43.430;23.136;2022-11-21T09:09:24;0.30;;;0.30;;
46721;SDS011;32455;43.430;23.136;2022-11-21T09:12:09;0.50;;;0.40;;
46721;SDS011;32455;43.430;23.136;2022-11-21T09:14:54;1.17;;;0.50;;
46721;SDS011;32455;43.430;23.136;2022-11-21T09:18:02;0.70;;;0.50;;
46721;SDS011;32455;43.430;23.136;2022-11-21T09:20:48;0.40;;;0.40;;
46721;SDS011;32455;43.430;23.136;2022-11-21T09:23:34;2.08;;;0.50;;
46721;SDS011;32455;43.430;23.136;2022-11-21T09:26:20;0.40;;;0.40;;
46721;SDS011;32455;43.430;23.136;2022-11-21T09:29:05;0.30;;;0.30;;
46721;SDS011;32455;43.430;23.136;2022-11-21T09:31:51;0.50;;;0.50;;
46721;SDS011;32455;43.430;23.136;2022-11-21T09:34:36;0.28;;;0.28;;
46721;SDS011;32455;43.430;23.136;2022-11-21T09:37:21;1.95;;;0.90;;
46721;SDS011;32455;43.430;23.136;2022-11-21T09:40:09;1.30;;;1.15;;
46721;SDS011;32455;43.430;23.136;2022-11-21T09:43:05;0.60;;;0.57;;
46721;SDS011;32455;43.430;23.136;2022-11-21T09:46:05;1.10;;;0.80;;
46721;SDS011;32455;43.430;23.136;2022-11-21T09:48:59;0.45;;;0.40;;
46721;SDS011;32455;43.430;23.136;2022-11-21T09:51:49;0.70;;;0.40;;
46721;SDS011;32455;43.430;23.136;2022-11-21T09:54:36;0.30;;;0.30;;
46721;SDS011;32455;43.430;23.136;2022-11-21T09:57:32;0.20;;;0.20;;
46721;SDS011;32455;43.430;23.136;2022-11-21T10:00:21;2.47;;;0.38;;
46721;SDS011;32455;43.430;23.136;2022-11-21T10:03:08;0.20;;;0.20;;
46721;SDS011;32455;43.430;23.136;2022-11-21T10:06:05;0.52;;;0.30;;
46721;SDS011;32455;43.430;23.136;2022-11-21T10:27:17;1.83;;;0.70;;
46721;SDS011;32455;43.430;23.136;2022-11-21T10:30:17;1.25;;;0.52;;
46721;SDS011;32455;43.430;23.136;2022-11-21T10:33:03;0.90;;;0.60;;
46721;SDS011;32455;43.430;23.136;2022-11-21T10:35:58;1.48;;;0.45;;
46721;SDS011;32455;43.430;23.136;2022-11-21T10:46:08;1.15;;;0.40;;
46721;SDS011;32455;43.430;23.136;2022-11-21T10:49:00;0.55;;;0.40;;
46721;SDS011;32455;43.430;23.136;2022-11-21T10:51:57;0.32;;;0.32;;
46721;SDS011;32455;43.430;23.136;2022-11-21T10:57:50;0.38;;;0.38;;
46721;SDS011;32455;43.430;23.136;2022-11-21T11:00:37;0.40;;;0.40;;
46721;SDS011;32455;43.430;23.136;2022-11-21T11:03:41;0.30;;;0.30;;
46721;SDS011;32455;43.430;23.136;2022-11-21T11:06:29;0.40;;;0.38;;
46721;SDS011;32455;43.430;23.136;2022-11-21T11:09:24;0.47;;;0.47;;
46721;SDS011;32455;43.430;23.136;2022-11-21T11:12:25;4.75;;;0.75;;
46721;SDS011;32455;43.430;23.136;2022-11-21T11:15:32;0.40;;;0.40;;
46721;SDS011;32455;43.430;23.136;2022-11-21T11:18:21;0.60;;;0.60;;
46721;SDS011;32455;43.430;23.136;2022-11-21T11:21:17;0.40;;;0.40;;
46721;SDS011;32455;43.430;23.136;2022-11-21T11:26:59;0.40;;;0.40;;
46721;SDS011;32455;43.430;23.136;2022-11-21T11:29:49;0.85;;;0.73;;
46721;SDS011;32455;43.430;23.136;2022-11-21T11:32:38;0.50;;;0.50;;
46721;SDS011;32455;43.430;23.136;2022-11-21T11:35:25;1.85;;;1.30;;
46721;SDS011;32455;43.430;23.136;2022-11-21T11:38:17;1.08;;;0.98;;
46721;SDS011;32455;43.430;23.136;2022-11-21T11:41:10;0.98;;;0.82;;
46721;SDS011;32455;43.430;23.136;2022-11-21T11:44:08;1.55;;;1.10;;
46721;SDS011;32455;43.430;23.136;2022-11-21T11:47:21;1.42;;;1.23;;
46721;SDS011;32455;43.430;23.136;2022-11-21T11:50:18;0.70;;;0.70;;
46721;SDS011;32455;43.430;23.136;2022-11-21T11:53:22;0.63;;;0.63;;
46721;SDS011;32455;43.430;23.136;2022-11-21T12:02:35;0.57;;;0.57;;
46721;SDS011;32455;43.430;23.136;2022-11-21T12:05:33;0.40;;;0.40;;
46721;SDS011;32455;43.430;23.136;2022-11-21T12:08:33;0.40;;;0.40;;
46721;SDS011;32455;43.430;23.136;2022-11-21T12:15:02;0.50;;;0.50;;
46721;SDS011;32455;43.430;23.136;2022-11-21T12:18:50;0.30;;;0.30;;
46721;SDS011;32455;43.430;23.136;2022-11-21T12:21:39;0.60;;;0.60;;
46721;SDS011;32455;43.430;23.136;2022-11-21T12:24:25;1.42;;;0.70;;
46721;SDS011;32455;43.430;23.136;2022-11-21T12:27:23;0.52;;;0.52;;
46721;SDS011;32455;43.430;23.136;2022-11-21T12:30:19;0.60;;;0.60;;
46721;SDS011;32455;43.430;23.136;2022-11-21T12:33:19;0.45;;;0.45;;
46721;SDS011;32455;43.430;23.136;2022-11-21T12:36:23;0.40;;;0.40;;
46721;SDS011;32455;43.430;23.136;2022-11-21T12:42:42;0.50;;;0.50;;
46721;SDS011;32455;43.430;23.136;2022-11-21T12:45:35;0.73;;;0.73;;
46721;SDS011;32455;43.430;23.136;2022-11-21T12:48:40;0.40;;;0.40;;
46721;SDS011;32455;43.430;23.136;2022-11-21T12:55:42;0.60;;;0.60;;
46721;SDS011;32455;43.430;23.136;2022-11-21T12:58:30;0.60;;;0.60;;
46721;SDS011;32455;43.430;23.136;2022-11-21T13:01:33;0.50;;;0.50;;
46721;SDS011;32455;43.430;23.136;2022-11-21T13:04:33;0.77;;;0.77;;
46721;SDS011;32455;43.430;23.136;2022-11-21T13:07:23;1.38;;;0.90;;
46721;SDS011;32455;43.430;23.136;2022-11-21T13:10:13;4.93;;;0.93;;
46721;SDS011;32455;43.430;23.136;2022-11-21T13:13:04;2.58;;;1.75;;
46721;SDS011;32455;43.430;23.136;2022-11-21T13:16:07;0.70;;;0.70;;
46721;SDS011;32455;43.430;23.136;2022-11-21T13:19:01;0.75;;;0.70;;
46721;SDS011;32455;43.430;23.136;2022-11-21T13:21:59;0.90;;;0.90;;
46721;SDS011;32455;43.430;23.136;2022-11-21T13:27:38;0.70;;;0.70;;
46721;SDS011;32455;43.430;23.136;2022-11-21T13:30:24;0.63;;;0.63;;
46721;SDS011;32455;43.430;23.136;2022-11-21T13:33:10;0.63;;;0.63;;
46721;SDS011;32455;43.430;23.136;2022-11-21T13:42:02;0.70;;;0.70;;
46721;SDS011;32455;43.430;23.136;2022-11-21T13:45:38;0.63;;;0.63;;
46721;SDS011;32455;43.430;23.136;2022-11-21T13:57:41;1.10;;;1.00;;
46721;SDS011;32455;43.430;23.136;2022-11-21T14:00:53;0.95;;;0.95;;
46721;SDS011;32455;43.430;23.136;2022-11-21T14:03:58;0.60;;;0.60;;
46721;SDS011;32455;43.430;23.136;2022-11-21T14:06:55;0.60;;;0.60;;
46721;SDS011;32455;43.430;23.136;2022-11-21T14:13:47;0.75;;;0.75;;
46721;SDS011;32455;43.430;23.136;2022-11-21T14:16:34;1.10;;;1.00;;
46721;SDS011;32455;43.430;23.136;2022-11-21T14:19:26;1.10;;;1.00;;
46721;SDS011;32455;43.430;23.136;2022-11-21T14:22:26;1.20;;;1.10;;
46721;SDS011;32455;43.430;23.136;2022-11-21T14:25:19;1.95;;;1.30;;
46721;SDS011;32455;43.430;23.136;2022-11-21T14:28:22;1.63;;;1.17;;
46721;SDS011;32455;43.430;23.136;2022-11-21T14:33:56;1.10;;;1.00;;
46721;SDS011;32455;43.430;23.136;2022-11-21T14:36:42;1.38;;;1.00;;
46721;SDS011;32455;43.430;23.136;2022-11-21T14:39:28;0.77;;;0.77;;
46721;SDS011;32455;43.430;23.136;2022-11-21T14:42:17;0.80;;;0.70;;
46721;SDS011;32455;43.430;23.136;2022-11-21T14:45:34;1.38;;;0.80;;
46721;SDS011;32455;43.430;23.136;2022-11-21T14:48:14;0.73;;;0.73;;
46721;SDS011;32455;43.430;23.136;2022-11-21T14:50:59;0.77;;;0.77;;
46721;SDS011;32455;43.430;23.136;2022-11-21T14:53:44;2.15;;;1.10;;
46721;SDS011;32455;43.430;23.136;2022-11-21T14:56:31;1.38;;;1.20;;
46721;SDS011;32455;43.430;23.136;2022-11-21T14:59:25;4.43;;;1.17;;
46721;SDS011;32455;43.430;23.136;2022-11-21T15:02:15;1.20;;;1.10;;
46721;SDS011;32455;43.430;23.136;2022-11-21T15:05:05;0.90;;;0.90;;
46721;SDS011;32455;43.430;23.136;2022-11-21T15:07:59;1.17;;;1.15;;
46721;SDS011;32455;43.430;23.136;2022-11-21T15:10:44;1.20;;;1.10;;
46721;SDS011;32455;43.430;23.136;2022-11-21T15:13:31;1.40;;;1.30;;
46721;SDS011;32455;43.430;23.136;2022-11-21T15:16:21;1.52;;;1.23;;
46721;SDS011;32455;43.430;23.136;2022-11-21T15:19:08;2.03;;;1.30;;
46721;SDS011;32455;43.430;23.136;2022-11-21T15:21:58;2.05;;;1.25;;
46721;SDS011;32455;43.430;23.136;2022-11-21T15:24:44;2.85;;;1.60;;
46721;SDS011;32455;43.430;23.136;2022-11-21T15:27:30;2.00;;;1.70;;
46721;SDS011;32455;43.430;23.136;2022-11-21T15:33:04;2.10;;;1.70;;
46721;SDS011;32455;43.430;23.136;2022-11-21T15:35:53;2.55;;;2.35;;
46721;SDS011;32455;43.430;23.136;2022-11-21T15:39:11;5.30;;;4.25;;
46721;SDS011;32455;43.430;23.136;2022-11-21T15:42:25;3.28;;;2.60;;
46721;SDS011;32455;43.430;23.136;2022-11-21T15:48:00;2.65;;;2.30;;
46721;SDS011;32455;43.430;23.136;2022-11-21T15:50:45;3.58;;;2.90;;
46721;SDS011;32455;43.430;23.136;2022-11-21T15:53:31;2.67;;;2.47;;
46721;SDS011;32455;43.430;23.136;2022-11-21T15:56:17;3.28;;;2.50;;
46721;SDS011;32455;43.430;23.136;2022-11-21T15:59:04;3.13;;;2.83;;
46721;SDS011;32455;43.430;23.136;2022-11-21T16:01:50;3.08;;;2.60;;
46721;SDS011;32455;43.430;23.136;2022-11-21T16:04:36;3.78;;;3.00;;
46721;SDS011;32455;43.430;23.136;2022-11-21T16:07:21;3.38;;;2.60;;
46721;SDS011;32455;43.430;23.136;2022-11-21T16:10:06;4.93;;;2.13;;
46721;SDS011;32455;43.430;23.136;2022-11-21T16:12:53;3.15;;;2.25;;
46721;SDS011;32455;43.430;23.136;2022-11-21T16:15:38;2.47;;;1.90;;
46721;SDS011;32455;43.430;23.136;2022-11-21T16:18:24;3.25;;;2.00;;
46721;SDS011;32455;43.430;23.136;2022-11-21T16:21:09;3.20;;;2.40;;
46721;SDS011;32455;43.430;23.136;2022-11-21T16:23:55;2.90;;;2.03;;
46721;SDS011;32455;43.430;23.136;2022-11-21T16:26:41;3.17;;;1.98;;
46721;SDS011;32455;43.430;23.136;2022-11-21T16:29:26;2.03;;;1.83;;
46721;SDS011;32455;43.430;23.136;2022-11-21T16:32:11;3.03;;;2.70;;
46721;SDS011;32455;43.430;23.136;2022-11-21T16:34:57;3.40;;;2.95;;
46721;SDS011;32455;43.430;23.136;2022-11-21T16:37:42;3.20;;;2.78;;
46721;SDS011;32455;43.430;23.136;2022-11-21T16:40:28;3.67;;;3.13;;
46721;SDS011;32455;43.430;23.136;2022-11-21T16:43:13;2.67;;;2.40;;
46721;SDS011;32455;43.430;23.136;2022-11-21T16:46:16;2.63;;;2.22;;
46721;SDS011;32455;43.430;23.136;2022-11-21T16:49:03;4.03;;;2.80;;
46721;SDS011;32455;43.430;23.136;2022-11-21T16:51:49;3.15;;;2.85;;
46721;SDS011;32455;43.430;23.136;2022-11-21T16:54:34;2.15;;;1.95;;
46721;SDS011;32455;43.430;23.136;2022-11-21T16:57:20;2.30;;;2.10;;
46721;SDS011;32455;43.430;23.136;2022-11-21T17:00:05;6.80;;;4.60;;
46721;SDS011;32455;43.430;23.136;2022-11-21T17:02:56;6.60;;;4.00;;
46721;SDS011;32455;43.430;23.136;2022-11-21T17:05:41;10.25;;;5.85;;
46721;SDS011;32455;43.430;23.136;2022-11-21T17:08:27;10.43;;;4.85;;
46721;SDS011;32455;43.430;23.136;2022-11-21T17:11:17;10.75;;;6.15;;
46721;SDS011;32455;43.430;23.136;2022-11-21T17:14:09;5.47;;;4.13;;
46721;SDS011;32455;43.430;23.136;2022-11-21T17:16:55;6.53;;;3.20;;
46721;SDS011;32455;43.430;23.136;2022-11-21T17:19:41;3.58;;;3.28;;
46721;SDS011;32455;43.430;23.136;2022-11-21T17:22:27;7.80;;;7.00;;
46721;SDS011;32455;43.430;23.136;2022-11-21T17:25:12;4.30;;;3.55;;
46721;SDS011;32455;43.430;23.136;2022-11-21T17:27:58;3.13;;;2.83;;
46721;SDS011;32455;43.430;23.136;2022-11-21T17:30:43;2.35;;;2.13;;
46721;SDS011;32455;43.430;23.136;2022-11-21T17:33:29;3.08;;;2.20;;
46721;SDS011;32455;43.430;23.136;2022-11-21T17:36:14;5.15;;;3.33;;
46721;SDS011;32455;43.430;23.136;2022-11-21T17:38:59;5.38;;;3.58;;
46721;SDS011;32455;43.430;23.136;2022-11-21T17:41:45;3.20;;;2.55;;
46721;SDS011;32455;43.430;23.136;2022-11-21T17:44:29;5.97;;;3.00;;
46721;SDS011;32455;43.430;23.136;2022-11-21T17:47:14;4.38;;;3.75;;
46721;SDS011;32455;43.430;23.136;2022-11-21T17:50:00;4.18;;;3.30;;
46721;SDS011;32455;43.430;23.136;2022-11-21T17:52:45;3.72;;;3.00;;
46721;SDS011;32455;43.430;23.136;2022-11-21T17:55:31;3.00;;;2.40;;
46721;SDS011;32455;43.430;23.136;2022-11-21T17:58:16;2.40;;;2.08;;
46721;SDS011;32455;43.430;23.136;2022-11-21T18:01:03;3.20;;;2.42;;
46721;SDS011;32455;43.430;23.136;2022-11-21T18:04:00;4.18;;;3.17;;